Time;durP1;ratioP1;P1;durP2;ratioP2;P2;SDS_P1;SDS_P2;PMS_P1;PMS_P2;Temp;Humidity;BMP_temperature;BMP_pressure;BME280_temperature;BME280_humidity;BME280_pressure;Samples;Min_cycle;Max_cycle;Signal;HPM_P1;HPM_P2
2022/10/14 00:00:43;;;;;;;;;;;;;;;11.29;100.00;95883.53;10549677;28;2182;-74
2022/10/14 00:05:47;;;;;;;;;;;12.20;99.90;;;11.30;100.00;95885.16;10557936;28;2086;-74
2022/10/14 00:10:50;;;;;;;;;;;;;;;11.27;100.00;95899.97;10540582;28;2063;-74
2022/10/14 00:15:54;;;;;;;;;;;;;;;11.37;100.00;95888.34;10545125;28;2065;-74
2022/10/14 00:20:57;;;;;;;;;;;12.40;99.90;;;11.33;100.00;95890.00;10545879;28;2067;-74
2022/10/14 00:26:00;;;;;;;;;;;;;;;11.28;100.00;95898.88;10546695;28;1997;-75
2022/10/14 00:31:03;;;;;;;;;;;;;;;11.28;100.00;95895.41;10549173;28;2056;-72
2022/10/14 00:36:07;;;;;;;;;;;;;;;11.28;100.00;95890.81;10549314;28;2089;-73
2022/10/14 00:41:10;;;;;;;;;;;;;;;11.29;100.00;95895.13;10551553;28;2329;-77
2022/10/14 00:46:14;;;;;;;;;;;;;;;11.37;100.00;95897.22;10547128;28;2061;-75
2022/10/14 00:51:17;;;;;;;;;;;;;;;11.28;100.00;95888.13;10555306;28;2108;-73
2022/10/14 00:56:21;;;;;;;;;;;;;;;11.28;100.00;95885.44;10555527;28;2070;-73
2022/10/14 01:01:24;;;;;;;;;;;;;;;11.27;100.00;95888.41;10554671;28;2047;-74
2022/10/14 01:06:30;;;;;;;;;;;;;;;11.23;100.00;95882.75;10552562;28;2131;-73
2022/10/14 01:11:34;;;;;;;;;;;;;;;11.28;100.00;95888.13;10557244;28;2119;-73
2022/10/14 01:16:42;;;;;;;;;;;;;;;11.30;100.00;95885.16;10555976;28;2067;-74
2022/10/14 01:21:45;;;;;;;;;;;;;;;11.32;100.00;95878.44;10550819;28;1980;-74
2022/10/14 01:26:49;;;;;;;;;;;;;;;11.29;100.00;95878.16;10559278;28;2072;-72
2022/10/14 01:31:52;;;;;;;;;;;;;;;11.25;100.00;95883.28;10546621;28;2081;-74
2022/10/14 01:36:55;;;;;;;;;;;12.30;99.90;;;11.25;100.00;95877.91;10553795;28;2088;-74
2022/10/14 01:41:58;;;;;;;;;;;;;;;11.19;100.00;95873.63;10552419;28;2204;-74
2022/10/14 01:47:01;;;;;;;;;;;;;;;11.13;100.00;95872.03;10553672;28;2007;-73
2022/10/14 01:52:05;;;;;;;;;;;;;;;11.15;100.00;95872.56;10547296;28;2069;-73
2022/10/14 01:57:08;;;;;;;;;;;;;;;11.10;100.00;95861.81;10548161;28;2066;-76
2022/10/14 02:02:11;;;;;;;;;;;12.10;99.90;;;11.07;100.00;95873.16;10554536;28;2046;-72
2022/10/14 02:07:14;;;;;;;;;;;;;;;11.01;100.00;95871.56;10554306;28;1957;-73
2022/10/14 02:12:17;;;;;;;;;;;12.00;99.90;;;11.03;100.00;95880.13;10537862;28;2108;-74
2022/10/14 02:17:20;;;;;;;;;;;;;;;11.03;100.00;95874.75;10526115;28;2064;-72
2022/10/14 02:22:24;;;;;;;;;;;;;;;11.00;100.00;95880.66;10542262;28;2069;-72
2022/10/14 02:27:27;;;;;;;;;;;;;;;10.97;100.00;95881.22;10549989;28;2116;-77
2022/10/14 02:32:30;;;;;;;;;;;11.70;99.90;;;10.91;100.00;95888.50;10542578;28;2144;-73
2022/10/14 02:37:32;;;;;;;;;;;11.70;99.90;;;10.90;100.00;95886.09;10545764;28;1961;-74
2022/10/14 02:42:35;;;;;;;;;;;11.70;99.90;;;10.92;100.00;95895.50;10547455;28;2068;-74
2022/10/14 02:47:38;;;;;;;;;;;11.70;99.90;;;10.87;100.00;95900.88;10550969;27;2182;-79
2022/10/14 02:52:41;;;;;;;;;;;11.70;99.90;;;10.88;100.00;95898.97;10550177;28;2068;-74
2022/10/14 02:57:44;;;;;;;;;;;11.70;99.90;;;10.91;100.00;95893.88;10547450;28;1964;-73
2022/10/14 03:02:47;;;;;;;;;;;11.60;99.90;;;10.87;100.00;95895.50;10544028;28;2020;-75
2022/10/14 03:07:50;;;;;;;;;;;11.70;99.90;;;10.90;100.00;95886.09;10549318;28;2056;-74
2022/10/14 03:12:52;;;;;;;;;;;11.70;99.90;;;10.93;100.00;95896.28;10549205;28;2008;-71
2022/10/14 03:17:55;;;;;;;;;;;11.70;99.90;;;10.95;100.00;95899.53;10543638;28;2084;-74
2022/10/14 03:22:58;;;;;;;;;;;11.70;99.90;;;10.94;100.00;95897.91;10557194;28;2010;-74
2022/10/14 03:28:00;;;;;;;;;;;11.70;99.90;;;10.95;100.00;95880.72;10547977;28;2136;-73
2022/10/14 03:33:03;;;;;;;;;;;11.70;99.90;;;10.94;100.00;95879.91;10550352;28;2155;-73
2022/10/14 03:38:06;;;;;;;;;;;11.80;99.90;;;11.02;100.00;95884.72;10544173;28;2113;-72
2022/10/14 03:43:09;;;;;;;;;;;11.80;99.90;;;10.96;100.00;95885.81;10529955;28;2082;-73
2022/10/14 03:48:11;;;;;;;;;;;11.70;99.90;;;10.97;100.00;95892.00;10540880;28;2013;-74
2022/10/14 03:53:14;;;;;;;;;;;11.80;99.90;;;11.08;100.00;95880.13;10545678;28;2058;-74
2022/10/14 03:58:17;;;;;;;;;;;11.80;99.90;;;11.04;100.00;95881.75;10544521;28;2008;-73
2022/10/14 04:03:20;;;;;;;;;;;11.90;99.90;;;11.14;100.00;95870.16;10543314;28;2054;-74
2022/10/14 04:08:23;;;;;;;;;;;11.90;99.90;;;11.14;100.00;95881.72;10539873;28;2155;-73
2022/10/14 04:13:25;;;;;;;;;;;12.00;99.90;;;11.18;100.00;95872.00;10535770;28;2041;-75
2022/10/14 04:18:28;;;;;;;;;;;12.00;99.90;;;11.18;100.00;95866.63;10545045;28;2068;-74
2022/10/14 04:23:31;;;;;;;;;;;11.90;99.90;;;11.17;100.00;95859.63;10560948;28;1977;-72
2022/10/14 04:28:40;;;;;;;;;;;12.00;99.90;;;11.25;100.00;95856.38;10548592;28;2063;-73
2022/10/14 04:33:43;;;;;;;;;;;11.90;99.90;;;11.20;100.00;95853.72;10560682;28;1941;-73
2022/10/14 04:38:46;;;;;;;;;;;12.00;99.90;;;11.17;100.00;95859.63;10550825;28;1905;-75
2022/10/14 04:43:49;;;;;;;;;;;12.00;99.90;;;11.21;100.00;95849.16;10552736;28;2131;-74
2022/10/14 04:48:51;;;;;;;;;;;12.00;99.90;;;11.21;100.00;95844.56;10546303;28;2154;-74
2022/10/14 04:53:54;;;;;;;;;;;12.00;99.90;;;11.20;100.00;95837.59;10537713;28;2012;-74
2022/10/14 04:58:57;;;;;;;;;;;12.00;99.90;;;11.13;100.00;95831.66;10547917;28;2055;-74
2022/10/14 05:03:59;;;;;;;;;;;11.90;99.90;;;11.10;100.00;95827.66;10548653;28;2024;-75
2022/10/14 05:09:02;;;;;;;;;;;11.90;99.90;;;11.08;100.00;95824.44;10549318;28;2088;-75
2022/10/14 05:14:15;;;;;;;;;;;11.90;99.90;;;11.07;100.00;95816.66;10537894;28;1980;-75
2022/10/14 05:19:18;;;;;;;;;;;11.90;99.90;;;11.11;100.00;95823.06;10541275;28;2028;-75
2022/10/14 05:24:20;;;;;;;;;;;11.90;99.90;;;11.13;100.00;95818.22;10545192;28;2048;-74
2022/10/14 05:29:23;;;;;;;;;;;11.90;99.90;;;11.23;100.00;95815.50;10550422;28;1965;-74
2022/10/14 05:34:26;;;;;;;;;;;12.00;99.90;;;11.23;100.00;95820.88;10526825;28;2284;-75
2022/10/14 05:39:29;;;;;;;;;;;12.00;99.90;;;11.23;100.00;95820.88;10552020;28;2322;-74
2022/10/14 05:44:31;;;;;;;;;;;12.00;99.90;;;11.31;100.00;95812.22;10557745;28;2334;-74
2022/10/14 05:49:34;;;;;;;;;;;12.10;99.90;;;11.29;100.00;95814.38;10553758;28;2281;-74
2022/10/14 05:54:37;;;;;;;;;;;12.10;99.90;;;11.36;100.00;95812.19;10550880;28;2310;-74
2022/10/14 05:59:39;;;;;;;;;;;12.20;99.90;;;11.38;100.00;95807.31;10546043;28;2365;-74
2022/10/14 06:04:42;;;;;;;;;;;12.10;99.90;;;11.42;100.00;95804.09;10550190;28;2321;-74
2022/10/14 06:09:45;;;;;;;;;;;12.20;99.90;;;11.52;100.00;95809.44;10548391;28;2027;-73
2022/10/14 06:14:48;;;;;;;;;;;12.20;99.90;;;11.58;100.00;95805.63;10548323;28;2261;-75
2022/10/14 06:19:51;;;;;;;;;;;12.30;99.90;;;11.70;100.00;95799.88;10547049;28;2401;-76
2022/10/14 06:24:54;;;;;;;;;;;12.40;99.90;;;11.74;100.00;95809.00;10541190;28;2361;-72
2022/10/14 06:30:02;;;;;;;;;;;12.40;99.90;;;11.91;100.00;95798.69;10546045;28;2329;-72
2022/10/14 06:35:04;;;;;;;;;;;12.60;99.90;;;12.01;100.00;95797.78;10548922;28;2094;-76
2022/10/14 06:40:08;;;;;;;;;;;;;;;12.14;100.00;95797.16;10534012;28;2063;-75
2022/10/14 06:45:11;;;;;;;;;;;;;;;12.39;100.00;95814.97;10541936;28;2071;-76
2022/10/14 06:50:14;;;;;;;;;;;;;;;12.59;100.00;95806.69;10537296;28;2355;-76
2022/10/14 06:55:17;;;;;;;;;;;;;;;12.73;100.00;95804.16;10538402;28;2321;-76
2022/10/14 07:00:20;;;;;;;;;;;;;;;12.82;100.00;95802.41;10536665;28;2144;-77
2022/10/14 07:05:24;;;;;;;;;;;;;;;12.88;100.00;95809.38;10536749;28;2287;-77
2022/10/14 07:10:37;;;;;;;;;;;;;;;12.95;100.00;95796.34;10534475;28;2293;-83
2022/10/14 07:15:40;;;;;;;;;;;;;;;12.92;100.00;95790.72;10527453;28;2321;-74
2022/10/14 07:20:49;;;;;;;;;;;;;;;12.83;100.00;95785.13;10526191;28;2338;-74
2022/10/14 07:25:53;;;;;;;;;;;;;;;12.82;100.00;95777.34;10538703;28;2288;-74
2022/10/14 07:30:59;;;;;;;;;;;;;;;12.80;100.00;95777.63;10532428;28;2392;-74
2022/10/14 07:36:02;;;;;;;;;;;;;;;12.97;100.00;95779.84;10530916;28;2276;-73
2022/10/14 07:41:06;;;;;;;;;;;;;;;12.84;100.00;95777.84;10527496;28;2404;-75
2022/10/14 07:46:11;;;;;;;;;;;;;;;12.68;100.00;95779.94;10531513;28;2293;-76
2022/10/14 07:51:14;;;;;;;;;;;;;;;12.68;100.00;95780.72;10528381;28;2349;-75
2022/10/14 07:56:18;;;;;;;;;;;;;;;12.85;100.00;95780.28;10541011;28;2059;-72
2022/10/14 08:01:23;;;;;;;;;;;;;;;13.11;100.00;95771.88;10534376;28;2496;-71
2022/10/14 08:06:26;;;;;;;;;;;;;;;13.29;100.00;95773.81;10544692;28;2209;-71
2022/10/14 08:11:29;;;;;;;;;;;;;;;13.37;100.00;95773.19;10536637;28;2083;-71
2022/10/14 08:16:32;;;;;;;;;;;;;;;13.32;100.00;95775.94;10535389;28;2287;-73
2022/10/14 08:21:36;;;;;;;;;;;;;;;13.32;100.00;95767.84;10535081;28;2337;-73
2022/10/14 08:26:49;;;;;;;;;;;;;;;13.49;100.00;95757.34;10538982;28;2320;-72
2022/10/14 08:31:54;;;;;;;;;;;;;;;13.64;100.00;95747.41;10534215;28;2159;-72
2022/10/14 08:36:57;;;;;;;;;;;;;;;13.87;100.00;95751.91;10541119;28;2283;-73
2022/10/14 08:42:00;;;;;;;;;;;;;;;13.87;100.00;95751.09;10528389;28;2075;-73
2022/10/14 08:47:03;;;;;;;;;;;;;;;13.93;100.00;95753.44;10544256;28;2332;-78
2022/10/14 08:52:07;;;;;;;;;;;;;;;14.01;100.00;95738.44;10541145;28;2031;-73
2022/10/14 08:57:10;;;;;;;;;;;;;;;14.07;100.00;95732.66;10544538;28;2042;-69
2022/10/14 09:02:15;;;;;;;;;;;;;;;14.20;100.00;95733.00;10540540;27;2269;-70
2022/10/14 09:07:18;;;;;;;;;;;;;;;14.23;100.00;95735.09;10545097;28;2272;-71
2022/10/14 09:12:21;;;;;;;;;;;;;;;14.21;100.00;95729.19;10534945;28;2055;-70
2022/10/14 09:17:25;;;;;;;;;;;;;;;14.74;100.00;95732.25;10537962;28;1996;-70
2022/10/14 09:22:28;;;;;;;;;;;;;;;15.37;100.00;95722.56;10523843;28;2322;-71
2022/10/14 09:27:32;;;;;;;;;;;;;;;16.02;100.00;95711.28;10540242;28;2316;-69
2022/10/14 09:32:36;;;;;;;;;;;;;;;16.16;100.00;95712.03;10532273;28;2302;-70
2022/10/14 09:37:41;;;;;;;;;;;;;;;16.49;100.00;95714.44;10544183;28;2225;-70
2022/10/14 09:42:43;;;;;;;;;;;16.80;99.90;;;16.55;100.00;95710.47;10529253;28;2283;-71
2022/10/14 09:47:47;;;;;;;;;;;;;;;16.53;100.00;95699.09;10537150;28;2160;-72
2022/10/14 09:52:51;;;;;;;;;;;17.00;99.90;;;16.71;95.49;95695.38;10534729;28;2408;-72
2022/10/14 09:57:53;;;;;;;;;;;17.10;99.90;;;16.63;100.00;95693.41;10535791;28;1995;-71
2022/10/14 10:02:57;;;;;;;;;;;;;;;16.37;100.00;95700.66;10534107;28;2361;-71
2022/10/14 10:08:00;;;;;;;;;;;17.10;99.90;;;16.47;100.00;95694.94;10526507;28;2298;-72
2022/10/14 10:13:04;;;;;;;;;;;17.10;99.90;;;16.46;100.00;95690.63;10526035;28;2030;-74
2022/10/14 10:18:07;;;;;;;;;;;17.00;99.90;;;16.51;93.92;95693.22;10536144;28;2230;-75
2022/10/14 10:23:11;;;;;;;;;;;;;;;16.65;84.10;95685.75;10536428;28;2667;-72
2022/10/14 10:28:15;;;;;;;;;;;;;;;16.81;92.99;95688.88;10532281;28;2033;-75
2022/10/14 10:33:17;;;;;;;;;;;17.10;99.90;;;16.90;88.58;95667.97;10539855;28;2268;-75
2022/10/14 10:38:21;;;;;;;;;;;;;;;16.80;98.28;95668.28;10538105;28;2300;-72
2022/10/14 10:43:24;;;;;;;;;;;;;;;16.70;90.10;95660.41;10537297;28;2422;-72
2022/10/14 10:48:27;;;;;;;;;;;;;;;16.74;95.86;95645.13;10536167;28;2343;-71
2022/10/14 10:53:30;;;;;;;;;;;;;;;17.06;86.30;95648.53;10535496;28;2397;-73
2022/10/14 10:58:34;;;;;;;;;;;;;;;17.11;91.11;95651.06;10549151;28;2383;-72
2022/10/14 11:03:40;;;;;;;;;;;17.60;99.90;;;17.14;75.74;95647.72;10533719;28;2051;-70
2022/10/14 11:14:08;;;;;;;;;;;;;;;17.26;76.06;95635.13;10529840;28;2229;-71
2022/10/14 11:19:12;;;;;;;;;;;;;;;17.51;80.88;95628.09;10525834;28;2647;-71
2022/10/14 11:24:16;;;;;;;;;;;17.90;99.90;;;17.52;78.83;95616.09;10530734;28;2335;-71
2022/10/14 11:29:19;;;;;;;;;;;;;;;17.88;80.12;95614.13;10529836;28;2311;-72
2022/10/14 11:34:22;;;;;;;;;;;18.20;99.90;;;18.17;74.88;95592.44;10527838;28;2362;-71
2022/10/14 11:39:32;;;;;;;;;;;;;;;18.27;75.62;95592.09;10522168;28;2335;-72
2022/10/14 11:44:38;;;;;;;;;;;;;;;18.51;74.64;95572.44;10535395;28;2314;-70
2022/10/14 11:49:41;;;;;;;;;;;;;;;18.90;75.82;95576.72;10532027;28;2237;-70
2022/10/14 11:54:44;;;;;;;;;;;;;;;18.93;62.04;95569.00;10532912;28;2257;-71
2022/10/14 11:59:47;;;;;;;;;;;;;;;19.14;66.26;95567.06;10533461;28;2368;-70
2022/10/14 12:04:50;;;;;;;;;;;;;;;19.39;64.14;95566.03;10531372;28;2060;-70
2022/10/14 12:09:54;;;;;;;;;;;;;;;19.33;62.50;95566.59;10533166;28;2320;-69
2022/10/14 12:15:02;;;;;;;;;;;;;;;19.50;65.84;95560.97;10530703;28;2309;-69
2022/10/14 12:20:05;;;;;;;;;;;;;;;19.38;66.19;95560.94;10532077;28;2325;-69
2022/10/14 12:25:08;;;;;;;;;;;;;;;19.38;70.28;95541.84;10539633;28;2397;-70
2022/10/14 12:30:13;;;;;;;;;;;;;;;19.24;60.91;95536.69;10534297;28;2250;-71
2022/10/14 12:35:19;;;;;;;;;;;;;;;18.98;70.46;95528.75;10544045;28;2367;-72
2022/10/14 12:40:23;;;;;;;;;;;;;;;19.26;67.92;95525.44;10537244;28;2198;-71
2022/10/14 12:45:26;;;;;;;;;;;;;;;19.31;69.06;95528.78;10542970;28;2368;-71
2022/10/14 12:50:30;;;;;;;;;;;;;;;19.33;67.72;95526.50;10549291;28;2353;-70
2022/10/14 12:55:33;;;;;;;;;;;;;;;19.08;71.94;95514.69;10552860;28;2309;-71
2022/10/14 13:00:36;;;;;;;;;;;;;;;19.04;73.56;95513.00;10555885;28;2466;-71
2022/10/14 13:05:39;;;;;;;;;;;;;;;18.92;79.81;95511.00;10547195;28;2334;-72
2022/10/14 13:10:47;;;;;;;;;;;;;;;19.11;76.97;95518.69;10548576;28;2091;-71
2022/10/14 13:15:50;;;;;;;;;;;;;;;18.81;83.90;95510.59;10557592;28;2294;-71
2022/10/14 13:20:53;;;;;;;;;;;;;;;18.84;79.71;95509.94;10546816;28;2329;-72
2022/10/14 13:25:57;;;;;;;;;;;;;;;18.92;79.61;95502.03;10544928;28;2328;-71
2022/10/14 13:31:00;;;;;;;;;;;;;;;19.10;75.71;95500.78;10547206;28;2343;-71
2022/10/14 13:36:04;;;;;;;;;;;;;;;19.08;74.82;95501.09;10546604;28;2385;-71
2022/10/14 13:41:07;;;;;;;;;;;;;;;18.70;78.11;95501.22;10550197;28;2262;-72
2022/10/14 13:46:10;;;;;;;;;;;;;;;18.23;83.65;95508.72;10541747;28;2308;-71
2022/10/14 13:51:14;;;;;;;;;;;;;;;17.21;100.00;95518.47;10539738;28;2299;-72
2022/10/14 13:56:37;;;;;;;;;;;;;;;16.55;100.00;95517.81;10541453;28;2336;-70
2022/10/14 14:01:40;;;;;;;;;;;;;;;16.27;100.00;95519.97;10519048;28;2308;-71
2022/10/14 14:06:43;;;;;;;;;;;;;;;15.93;100.00;95539.66;10538400;28;2252;-71
2022/10/14 14:12:07;;;;;;;;;;;;;;;15.59;100.00;95538.38;10534475;28;2282;-75
2022/10/14 14:17:10;;;;;;;;;;;;;;;15.15;100.00;95566.28;10537864;28;2304;-75
2022/10/14 14:22:13;;;;;;;;;;;;;;;14.69;100.00;95582.75;10533886;28;2345;-72
2022/10/14 14:27:16;;;;;;;;;;;;;;;14.41;100.00;95595.50;10536437;28;2361;-72
2022/10/14 14:32:19;;;;;;;;;;;;;;;14.07;100.00;95597.50;10542388;28;2367;-72
2022/10/14 14:37:23;;;;;;;;;;;;;;;13.90;100.00;95605.41;10544680;28;2297;-72
2022/10/14 14:42:47;;;;;;;;;;;;;;;13.70;100.00;95594.97;10540644;28;2333;-73
2022/10/14 14:47:50;;;;;;;;;;;;;;;13.73;100.00;95600.56;10539593;28;2116;-75
2022/10/14 14:52:53;;;;;;;;;;;;;;;13.68;100.00;95591.78;10538483;28;2207;-75
2022/10/14 14:57:56;;;;;;;;;;;;;;;13.67;100.00;95573.94;10540289;28;2310;-71
2022/10/14 15:03:02;;;;;;;;;;;;;;;13.50;100.00;95580.72;10533248;28;2285;-73
2022/10/14 15:08:06;;;;;;;;;;;;;;;13.47;100.00;95569.69;10533718;28;2018;-73
2022/10/14 15:13:10;;;;;;;;;;;;;;;13.62;100.00;95568.66;10538738;28;2366;-72
2022/10/14 15:18:13;;;;;;;;;;;;;;;13.65;100.00;95570.75;10534522;28;2426;-73
2022/10/14 15:23:16;;;;;;;;;;;;;;;13.71;100.00;95569.56;10542289;28;2273;-73
2022/10/14 15:28:20;;;;;;;;;;;;;;;13.73;100.00;95559.25;10541141;28;2121;-74
2022/10/14 15:33:23;;;;;;;;;;;;;;;13.75;100.00;95543.56;10550788;28;2275;-72
2022/10/14 15:38:27;;;;;;;;;;;;;;;13.70;100.00;95540.94;10549646;28;2033;-73
2022/10/14 15:43:32;;;;;;;;;;;;;;;13.86;100.00;95534.13;10536215;28;2611;-73
2022/10/14 15:48:36;;;;;;;;;;;;;;;13.90;100.00;95528.94;10541198;28;2069;-74
2022/10/14 15:53:39;;;;;;;;;;;;;;;13.91;100.00;95536.75;10552161;28;2061;-74
2022/10/14 15:58:42;;;;;;;;;;;;;;;13.92;100.00;95518.63;10548501;28;2298;-74
2022/10/14 16:03:45;;;;;;;;;;;;;;;13.84;100.00;95514.72;10537350;28;2344;-75
2022/10/14 16:08:48;;;;;;;;;;;;;;;13.76;100.00;95512.72;10541522;28;2294;-73
2022/10/14 16:13:52;;;;;;;;;;;;;;;13.69;100.00;95509.63;10557535;28;2014;-73
2022/10/14 16:18:55;;;;;;;;;;;;;;;13.59;100.00;95512.50;10558885;28;2336;-73
2022/10/14 16:24:00;;;;;;;;;;;;;;;13.54;100.00;95518.81;10559562;28;2245;-72
2022/10/14 16:29:04;;;;;;;;;;;;;;;13.49;100.00;95510.81;10564294;28;2314;-73
2022/10/14 16:34:07;;;;;;;;;;;;;;;13.46;100.00;95506.78;10562678;28;2345;-75
2022/10/14 16:39:10;;;;;;;;;;;;;;;13.46;100.00;95514.91;10550689;28;2348;-74
2022/10/14 16:44:24;;;;;;;;;;;;;;;13.38;100.00;95512.09;10546515;28;2269;-74
2022/10/14 16:49:27;;;;;;;;;;;;;;;13.34;100.00;95528.06;10554050;28;2384;-74
2022/10/14 16:54:31;;;;;;;;;;;;;;;13.41;100.00;95525.78;10555534;28;2362;-74
2022/10/14 16:59:34;;;;;;;;;;;;;;;13.47;100.00;95526.50;10561232;28;2859;-74
2022/10/14 17:04:37;;;;;;;;;;;;;;;13.50;100.00;95521.31;10546656;28;2493;-74
2022/10/14 17:09:41;;;;;;;;;;;;;;;13.47;100.00;95516.50;10559169;28;2049;-73
2022/10/14 17:14:45;;;;;;;;;;;;;;;13.39;100.00;95519.88;10552495;28;2317;-73
2022/10/14 17:19:49;;;;;;;;;;;;;;;13.22;100.00;95525.84;10553524;28;2674;-74
2022/10/14 17:24:53;;;;;;;;;;;;;;;13.10;100.00;95521.97;10551222;28;2431;-73
2022/10/14 17:29:56;;;;;;;;;;;;;;;13.05;100.00;95530.19;10548561;28;2381;-74
2022/10/14 17:35:00;;;;;;;;;;;;;;;13.11;100.00;95523.59;10553780;28;2321;-73
2022/10/14 17:40:03;;;;;;;;;;;;;;;13.16;100.00;95520.78;10551245;28;2038;-72
2022/10/14 17:45:07;;;;;;;;;;;;;;;13.24;100.00;95525.56;10555923;28;2287;-73
2022/10/14 17:50:11;;;;;;;;;;;;;;;13.31;100.00;95522.47;10547746;28;2269;-75
2022/10/14 17:55:15;;;;;;;;;;;;;;;13.29;100.00;95514.66;10550896;28;2424;-77
2022/10/14 18:00:18;;;;;;;;;;;;;;;13.22;100.00;95525.84;10545729;28;2363;-73
2022/10/14 18:05:23;;;;;;;;;;;;;;;13.16;100.00;95521.59;10553324;28;2288;-76
2022/10/14 18:10:26;;;;;;;;;;;;;;;13.09;100.00;95506.88;10552616;28;2321;-74
2022/10/14 18:15:30;;;;;;;;;;;;;;;13.10;100.00;95513.88;10557300;28;2351;-73
2022/10/14 18:20:34;;;;;;;;;;;;;;;13.09;100.00;95506.88;10553111;28;2329;-73
2022/10/14 18:25:37;;;;;;;;;;;;;;;13.08;100.00;95524.19;10539563;28;2332;-72
2022/10/14 18:30:40;;;;;;;;;;;;;;;13.04;100.00;95518.59;10541484;28;2292;-74
2022/10/14 18:35:44;;;;;;;;;;;;;;;13.04;100.00;95509.66;10537776;28;2328;-74
2022/10/14 18:40:50;;;;;;;;;;;;;;;13.01;100.00;95513.75;10535507;28;2291;-74
2022/10/14 18:45:54;;;;;;;;;;;;;;;13.04;100.00;95509.66;10523242;28;2282;-74
2022/10/14 18:50:57;;;;;;;;;;;;;;;13.08;100.00;95513.38;10539609;28;2132;-73
2022/10/14 18:56:00;;;;;;;;;;;;;;;13.10;100.00;95497.69;10540344;28;2331;-72
2022/10/14 19:01:04;;;;;;;;;;;;;;;13.14;100.00;95494.09;10542583;28;2441;-72
2022/10/14 19:06:07;;;;;;;;;;;;;;;13.13;100.00;95505.22;10547725;28;1987;-75
2022/10/14 19:11:10;;;;;;;;;;;;;;;13.13;100.00;95497.91;10543321;28;2421;-74
2022/10/14 19:16:13;;;;;;;;;;;;;;;13.13;100.00;95499.81;10550996;28;2266;-73
2022/10/14 19:21:28;;;;;;;;;;;;;;;13.09;100.00;95498.78;10554009;28;2074;-74
2022/10/14 19:26:32;;;;;;;;;;;;;;;13.09;100.00;95499.59;10533299;28;2338;-72
2022/10/14 19:31:35;;;;;;;;;;;;;;;13.09;100.00;95499.59;10555964;28;2632;-73
2022/10/14 19:36:39;;;;;;;;;;;;;;;13.00;100.00;95485.19;10552820;28;2307;-73
2022/10/14 19:41:43;;;;;;;;;;;;;;;12.94;100.00;95473.66;10547339;28;2102;-74
2022/10/14 19:46:47;;;;;;;;;;;;;;;12.96;100.00;95468.78;10550757;28;2290;-74
2022/10/14 19:51:50;;;;;;;;;;;;;;;13.01;100.00;95464.41;10555731;28;2529;-73
2022/10/14 19:56:53;;;;;;;;;;;;;;;13.07;100.00;95458.63;10551952;28;2345;-73
2022/10/14 20:01:57;;;;;;;;;;;;;;;13.05;100.00;95457.31;10546954;28;2326;-73
2022/10/14 20:07:00;;;;;;;;;;;;;;;13.06;100.00;95456.22;10557460;28;2400;-73
2022/10/14 20:12:03;;;;;;;;;;;;;;;13.08;100.00;95454.81;10553055;28;2044;-73
2022/10/14 20:17:07;;;;;;;;;;;;;;;13.07;100.00;95463.22;10548348;28;2322;-72
2022/10/14 20:22:11;;;;;;;;;;;;;;;13.15;100.00;95457.13;10543059;28;2044;-73
2022/10/14 20:27:14;;;;;;;;;;;;;;;13.16;100.00;95461.41;10533885;28;2391;-75
2022/10/14 20:32:18;;;;;;;;;;;;;;;13.15;100.00;95451.72;10544831;28;2352;-73
2022/10/14 20:37:27;;;;;;;;;;;;;;;13.08;100.00;95445.91;10554738;28;2360;-73
2022/10/14 20:42:31;;;;;;;;;;;;;;;13.05;100.00;95460.81;10548724;28;2039;-73
2022/10/14 20:47:34;;;;;;;;;;;;;;;13.06;100.00;95453.53;10555190;28;2412;-74
2022/10/14 20:52:38;;;;;;;;;;;;;;;13.06;100.00;95440.03;10552363;28;2300;-73
2022/10/14 20:57:41;;;;;;;;;;;;;;;13.08;100.00;95427.03;10549585;28;2259;-73
2022/10/14 21:02:44;;;;;;;;;;;;;;;13.01;100.00;95427.41;10550391;28;2381;-72
2022/10/14 21:07:48;;;;;;;;;;;;;;;12.94;100.00;95416.22;10553613;28;2558;-73
2022/10/14 21:12:51;;;;;;;;;;;;;;;13.01;100.00;95415.84;10550376;28;2283;-72
2022/10/14 21:17:54;;;;;;;;;;;;;;;13.11;100.00;95412.97;10556768;28;2450;-70
2022/10/14 21:22:58;;;;;;;;;;;;;;;13.14;100.00;95404.25;10546915;28;2046;-68
2022/10/14 21:28:02;;;;;;;;;;;;;;;13.35;100.00;95400.09;10553604;28;2303;-69
2022/10/14 21:33:05;;;;;;;;;;;;;;;13.48;100.00;95382.28;10557086;28;2331;-70
2022/10/14 21:38:12;;;;;;;;;;;;;;;13.50;100.00;95380.91;10552828;28;2098;-73
2022/10/14 21:43:16;;;;;;;;;;;;;;;13.51;100.00;95369.00;10559950;28;2350;-75
2022/10/14 21:48:19;;;;;;;;;;;;;;;13.33;100.00;95366.41;10555354;28;2026;-77
2022/10/14 21:53:23;;;;;;;;;;;;;;;13.27;100.00;95363.00;10552208;28;2198;-75
2022/10/14 21:58:26;;;;;;;;;;;;;;;13.25;100.00;95357.91;10556004;28;2268;-77
2022/10/14 22:03:29;;;;;;;;;;;;;;;13.24;100.00;95353.63;10546403;28;2309;-75
2022/10/14 22:08:32;;;;;;;;;;;;;;;13.12;100.00;95349.78;10558590;28;2276;-76
2022/10/14 22:13:36;;;;;;;;;;;;;;;12.91;100.00;95352.84;10555506;28;2315;-76
2022/10/14 22:18:42;;;;;;;;;;;;;;;12.81;100.00;95355.75;10563802;28;2277;-74
2022/10/14 22:23:45;;;;;;;;;;;;;;;12.64;100.00;95350.13;10563888;28;2358;-75
2022/10/14 22:28:50;;;;;;;;;;;;;;;12.56;100.00;95353.50;10570970;28;2303;-77
2022/10/14 22:33:53;;;;;;;;;;;;;;;12.49;100.00;95348.50;10553177;28;2040;-75
2022/10/14 22:38:57;;;;;;;;;;;;;;;12.42;100.00;95340.78;10537796;28;2300;-73
2022/10/14 22:44:00;;;;;;;;;;;;;;;12.41;100.00;95336.50;10555886;28;2287;-74
2022/10/14 22:49:04;;;;;;;;;;;;;;;12.36;100.00;95338.47;10548521;28;2300;-75
2022/10/14 22:54:07;;;;;;;;;;;;;;;12.31;100.00;95335.88;10552228;28;2319;-77
2022/10/14 22:59:10;;;;;;;;;;;;;;;12.27;100.00;95324.06;10553956;28;2018;-72
2022/10/14 23:04:14;;;;;;;;;;;;;;;12.26;100.00;95319.78;10550133;28;2348;-74
2022/10/14 23:09:17;;;;;;;;;;;;;;;12.22;100.00;95316.88;10549313;28;2391;-75
2022/10/14 23:14:21;;;;;;;;;;;;;;;12.22;100.00;95314.19;10548253;28;2323;-76
2022/10/14 23:19:24;;;;;;;;;;;;;;;12.24;100.00;95312.00;10550854;28;2135;-73
2022/10/14 23:24:28;;;;;;;;;;;;;;;12.21;100.00;95312.56;10554827;28;2264;-73
2022/10/14 23:29:32;;;;;;;;;;;;;;;12.18;100.00;95313.16;10552577;28;2320;-76
2022/10/14 23:34:36;;;;;;;;;;;;;;;12.15;100.00;95302.97;10549299;28;2018;-74
2022/10/14 23:39:39;;;;;;;;;;;;;;;12.12;100.00;95298.97;10543666;28;2436;-71
2022/10/14 23:44:42;;;;;;;;;;;;;;;12.09;100.00;95304.16;10553464;28;2326;-73
2022/10/14 23:49:46;;;;;;;;;;;;;;;12.11;100.00;95292.00;10544849;28;2367;-72
2022/10/14 23:54:49;;;;;;;;;;;;;;;12.05;100.00;95282.38;10548776;28;2339;-73
2022/10/14 23:59:52;;;;;;;;;;;;;;;12.08;100.00;95281.00;10555524;28;2304;-73
